Flat Rock, Alabama
Current Conditions -  °F | °C
As of 4:35 AM on Monday 22 Dec 2014 (Local Time) from K4A6 Reporting Station
Overcast Overcast  
Wind Chill: 46°   Ceiling: 1400
Heat Index: 48°   Visibility: 10mi
Dew Point: 45°   Wind: 6mph
Humidity: 87%   Direction: 150°SSE
Pressure: 30"   Gusts: NA
Location:  34.77°N, 85.69°W
Report Text: K4A6 221035Z AUTO 15005KT 10SM OVC014 09/07 A3000 RMK AO2
Loading
Personal Weather Stations






























Interactive Weather Map New forecast layout! Learn more

10-Day Weather Forecast

Advertisements
Track Severe Weather on mobile